createdAt,value
2019-03-09T00:00:26.547Z,1007.47
2019-03-09T00:01:26.485Z,1007.44
2019-03-09T00:02:26.476Z,1007.45
2019-03-09T00:03:26.488Z,1007.42
2019-03-09T00:04:26.448Z,1007.40
2019-03-09T00:05:26.441Z,1007.35
2019-03-09T00:06:26.437Z,1007.33
2019-03-09T00:07:26.419Z,1007.29
2019-03-09T00:08:26.407Z,1007.28
2019-03-09T00:09:26.418Z,1007.20
2019-03-09T00:10:26.385Z,1007.19
2019-03-09T00:11:26.387Z,1007.20
2019-03-09T00:12:26.374Z,1007.13
2019-03-09T00:13:26.396Z,1007.09
2019-03-09T00:14:26.370Z,1007.09
2019-03-09T00:15:26.336Z,1007.07
2019-03-09T00:16:26.325Z,1007.03
2019-03-09T00:17:26.328Z,1007.09
2019-03-09T00:18:26.305Z,1007.04
2019-03-09T00:19:26.291Z,1007.06
2019-03-09T00:20:26.277Z,1007.01
2019-03-09T00:21:26.269Z,1007.01
2019-03-09T00:22:26.287Z,1006.96
2019-03-09T00:23:26.248Z,1006.93
2019-03-09T00:24:26.281Z,1006.89
2019-03-09T00:25:26.227Z,1006.96
2019-03-09T00:26:26.268Z,1006.97
2019-03-09T00:27:29.926Z,1006.93
2019-03-09T00:28:26.247Z,1006.93
2019-03-09T00:29:26.233Z,1006.97
2019-03-09T00:30:26.172Z,1006.97
2019-03-09T00:31:26.162Z,1006.97
2019-03-09T00:32:26.150Z,1006.96
2019-03-09T00:33:26.139Z,1006.95
2019-03-09T00:34:26.130Z,1006.91
2019-03-09T00:35:26.181Z,1006.92
2019-03-09T00:36:28.099Z,1006.96
2019-03-09T00:37:26.090Z,1006.88
2019-03-09T00:38:26.080Z,1006.84
2019-03-09T00:39:26.686Z,1006.84
2019-03-09T00:40:26.070Z,1006.80
2019-03-09T00:41:26.052Z,1006.82
2019-03-09T00:42:26.122Z,1006.76
2019-03-09T00:43:26.032Z,1006.81
2019-03-09T00:44:26.015Z,1006.77
2019-03-09T00:45:26.082Z,1006.74
2019-03-09T00:46:25.995Z,1006.73
2019-03-09T00:47:25.988Z,1006.68
2019-03-09T00:48:25.975Z,1006.68
2019-03-09T00:49:25.966Z,1006.60
2019-03-09T00:50:25.956Z,1006.67
2019-03-09T00:51:26.041Z,1006.64
2019-03-09T00:52:25.929Z,1006.70
2019-03-09T00:53:25.926Z,1006.72
2019-03-09T00:54:25.908Z,1006.67
2019-03-09T00:55:25.897Z,1006.68
2019-03-09T00:56:25.893Z,1006.77
2019-03-09T00:57:25.939Z,1006.78
2019-03-09T00:58:25.869Z,1006.73
2019-03-09T00:59:25.855Z,1006.77
2019-03-09T01:00:25.847Z,1006.76
2019-03-09T01:01:25.838Z,1006.75
2019-03-09T01:02:25.870Z,1006.76
2019-03-09T01:03:25.811Z,1006.74
2019-03-09T01:04:25.804Z,1006.70
2019-03-09T01:05:25.791Z,1006.70
2019-03-09T01:06:25.785Z,1006.67
2019-03-09T01:07:25.827Z,1006.63
2019-03-09T01:08:25.761Z,1006.58
2019-03-09T01:09:25.753Z,1006.54
2019-03-09T01:10:25.739Z,1006.56
2019-03-09T01:11:25.733Z,1006.48
2019-03-09T01:12:25.719Z,1006.48
2019-03-09T01:13:25.758Z,1006.45
2019-03-09T01:14:25.698Z,1006.44
2019-03-09T01:15:25.681Z,1006.43
2019-03-09T01:16:25.672Z,1006.36
2019-03-09T01:17:25.663Z,1006.35
2019-03-09T01:18:25.723Z,1006.34
2019-03-09T01:19:26.210Z,1006.36
2019-03-09T01:20:25.627Z,1006.37
2019-03-09T01:21:25.621Z,1006.32
2019-03-09T01:22:25.616Z,1006.30
2019-03-09T01:23:25.694Z,1006.36
2019-03-09T01:24:25.582Z,1006.33
2019-03-09T01:25:25.577Z,1006.28
2019-03-09T01:26:25.575Z,1006.30
2019-03-09T01:27:25.552Z,1006.32
2019-03-09T01:28:25.643Z,1006.25
2019-03-09T01:29:25.543Z,1006.22
2019-03-09T01:30:25.525Z,1006.16
2019-03-09T01:31:25.517Z,1006.15
2019-03-09T01:32:25.496Z,1006.12
2019-03-09T01:33:25.491Z,1006.04
2019-03-09T01:34:25.548Z,1006.03
2019-03-09T01:35:25.463Z,1005.90
2019-03-09T01:36:25.460Z,1005.91
2019-03-09T01:37:25.462Z,1005.90
2019-03-09T01:38:25.488Z,1005.85
2019-03-09T01:39:25.422Z,1005.89
2019-03-09T01:40:25.415Z,1005.82
2019-03-09T01:41:25.405Z,1005.84
2019-03-09T01:42:25.465Z,1005.79
2019-03-09T01:43:25.385Z,1005.74
2019-03-09T01:44:25.383Z,1005.73
2019-03-09T01:45:25.424Z,1005.76
2019-03-09T01:46:25.349Z,1005.72
2019-03-09T01:47:25.334Z,1005.69
2019-03-09T01:48:25.324Z,1005.69
2019-03-09T01:49:25.390Z,1005.70
2019-03-09T01:50:25.306Z,1005.72
2019-03-09T01:51:25.296Z,1005.72
2019-03-09T01:52:25.285Z,1005.63
2019-03-09T01:53:25.324Z,1005.62
2019-03-09T01:54:25.265Z,1005.64
2019-03-09T01:55:25.252Z,1005.61
2019-03-09T01:56:25.245Z,1005.58
2019-03-09T01:57:25.250Z,1005.52
2019-03-09T01:58:25.218Z,1005.52
2019-03-09T01:59:25.286Z,1005.48
2019-03-09T02:00:25.197Z,1005.50
2019-03-09T02:01:25.182Z,1005.45
2019-03-09T02:02:25.179Z,1005.47
2019-03-09T02:03:25.162Z,1005.46
2019-03-09T02:04:25.152Z,1005.42
2019-03-09T02:05:25.242Z,1005.37
2019-03-09T02:06:25.128Z,1005.37
2019-03-09T02:07:25.128Z,1005.34
2019-03-09T02:08:25.119Z,1005.35
2019-03-09T02:09:25.101Z,1005.33
2019-03-09T02:10:25.161Z,1005.33
2019-03-09T02:11:25.174Z,1005.25
2019-03-09T02:12:25.067Z,1005.30
2019-03-09T02:13:25.057Z,1005.29
2019-03-09T02:14:25.042Z,1005.27
2019-03-09T02:15:25.029Z,1005.28
2019-03-09T02:16:25.019Z,1005.18
2019-03-09T02:17:25.033Z,1005.20
2019-03-09T02:18:25.004Z,1005.24
2019-03-09T02:19:24.993Z,1005.16
2019-03-09T02:20:25.009Z,1005.12
2019-03-09T02:21:24.965Z,1005.10
2019-03-09T02:22:25.032Z,1005.10
2019-03-09T02:23:24.989Z,1005.01
2019-03-09T02:24:24.934Z,1005.07
2019-03-09T02:25:24.926Z,1005.00
2019-03-09T02:26:24.923Z,1005.01
2019-03-09T02:27:24.905Z,1005.02
2019-03-09T02:28:24.915Z,1004.94
2019-03-09T02:29:24.880Z,1004.92
2019-03-09T02:30:24.871Z,1004.89
2019-03-09T02:31:24.859Z,1004.84
2019-03-09T02:32:24.845Z,1004.79
2019-03-09T02:33:24.870Z,1004.82
2019-03-09T02:34:24.833Z,1004.77
2019-03-09T02:35:24.886Z,1004.75
2019-03-09T02:36:24.810Z,1004.72
2019-03-09T02:37:24.792Z,1004.72
2019-03-09T02:38:24.853Z,1004.73
2019-03-09T02:39:24.794Z,1004.77
2019-03-09T02:40:24.757Z,1004.86
2019-03-09T02:41:24.772Z,1004.78
2019-03-09T02:42:24.737Z,1004.77
2019-03-09T02:43:24.799Z,1004.80
2019-03-09T02:44:24.719Z,1004.76
2019-03-09T02:45:24.707Z,1004.78
2019-03-09T02:46:24.691Z,1004.73
2019-03-09T02:47:24.682Z,1004.74
2019-03-09T02:48:24.705Z,1004.70
2019-03-09T02:49:24.668Z,1004.69
2019-03-09T02:50:25.218Z,1004.61
2019-03-09T02:51:24.637Z,1004.51
2019-03-09T02:52:24.638Z,1004.44
2019-03-09T02:53:24.626Z,1004.40
2019-03-09T02:54:24.676Z,1004.34
2019-03-09T02:55:24.594Z,1004.30
2019-03-09T02:56:24.581Z,1004.30
2019-03-09T02:57:24.575Z,1004.30
2019-03-09T02:58:24.663Z,1004.28
2019-03-09T02:59:24.661Z,1004.29
2019-03-09T03:00:24.563Z,1004.31
2019-03-09T03:01:24.591Z,1004.31
2019-03-09T03:02:24.516Z,1004.33
2019-03-09T03:03:24.517Z,1004.26
2019-03-09T03:04:24.493Z,1004.29
2019-03-09T03:05:24.586Z,1004.24
2019-03-09T03:06:24.492Z,1004.14
2019-03-09T03:07:24.487Z,1004.11
2019-03-09T03:08:24.457Z,1004.12
2019-03-09T03:09:24.454Z,1004.11
2019-03-09T03:10:25.421Z,1004.08
2019-03-09T03:11:24.546Z,1004.04
2019-03-09T03:12:24.462Z,1003.94
2019-03-09T03:13:24.399Z,1003.94
2019-03-09T03:14:24.383Z,1003.88
2019-03-09T03:15:24.377Z,1003.85
2019-03-09T03:16:24.368Z,1003.83
2019-03-09T03:17:24.359Z,1003.85
2019-03-09T03:18:24.414Z,1003.84
2019-03-09T03:19:24.332Z,1003.72
2019-03-09T03:20:24.322Z,1003.74
2019-03-09T03:21:24.312Z,1003.67
2019-03-09T03:22:24.312Z,1003.66
2019-03-09T03:23:24.313Z,1003.66
2019-03-09T03:24:24.287Z,1003.64
2019-03-09T03:25:24.283Z,1003.62
2019-03-09T03:26:24.453Z,1003.58
2019-03-09T03:27:24.298Z,1003.55
2019-03-09T03:28:24.800Z,1003.51
2019-03-09T03:29:24.304Z,1003.49
2019-03-09T03:30:24.323Z,1003.48
2019-03-09T03:31:24.198Z,1003.46
2019-03-09T03:32:24.410Z,1003.43
2019-03-09T03:33:31.784Z,1003.41
2019-03-09T03:34:24.168Z,1003.38
2019-03-09T03:35:24.204Z,1003.39
2019-03-09T03:36:24.140Z,1003.37
2019-03-09T03:37:24.770Z,1003.35
2019-03-09T03:38:24.120Z,1003.30
2019-03-09T03:39:24.167Z,1003.26
2019-03-09T03:40:24.098Z,1003.19
2019-03-09T03:41:24.103Z,1003.16
2019-03-09T03:42:24.085Z,1003.22
2019-03-09T03:43:24.075Z,1003.20
2019-03-09T03:44:24.106Z,1003.17
2019-03-09T03:45:24.068Z,1003.12
2019-03-09T03:46:24.034Z,1003.12
2019-03-09T03:47:24.024Z,1003.08
2019-03-09T03:48:24.066Z,1003.07
2019-03-09T03:49:24.040Z,1003.07
2019-03-09T03:50:23.990Z,1003.09
2019-03-09T03:51:23.979Z,1003.07
2019-03-09T03:52:23.980Z,1003.06
2019-03-09T03:53:23.962Z,1003.00
2019-03-09T03:54:23.942Z,1002.96
2019-03-09T03:55:24.002Z,1002.93
2019-03-09T03:56:23.937Z,1002.87
2019-03-09T03:57:23.911Z,1002.88
2019-03-09T03:58:23.904Z,1002.87
2019-03-09T03:59:23.896Z,1002.81
2019-03-09T04:00:23.873Z,1002.86
2019-03-09T04:01:23.902Z,1002.81
2019-03-09T04:02:23.858Z,1002.78
2019-03-09T04:03:23.846Z,1002.78
2019-03-09T04:04:23.842Z,1002.72
2019-03-09T04:05:23.827Z,1002.72
2019-03-09T04:06:23.864Z,1002.70
2019-03-09T04:07:23.796Z,1002.65
2019-03-09T04:08:23.792Z,1002.61
2019-03-09T04:09:23.774Z,1002.58
2019-03-09T04:10:23.768Z,1002.58
2019-03-09T04:11:23.786Z,1002.57
2019-03-09T04:12:23.748Z,1002.49
2019-03-09T04:13:23.729Z,1002.54
2019-03-09T04:14:23.726Z,1002.54
2019-03-09T04:15:23.714Z,1002.48
2019-03-09T04:16:23.752Z,1002.52
2019-03-09T04:17:23.693Z,1002.49
2019-03-09T04:18:23.677Z,1002.50
2019-03-09T04:19:23.719Z,1002.38
2019-03-09T04:20:23.684Z,1002.44
2019-03-09T04:21:23.665Z,1002.27
2019-03-09T04:22:23.633Z,1002.28
2019-03-09T04:23:23.625Z,1002.31
2019-03-09T04:24:23.613Z,1002.26
2019-03-09T04:25:23.606Z,1002.27
2019-03-09T04:26:23.663Z,1002.23
2019-03-09T04:27:23.650Z,1002.14
2019-03-09T04:28:23.570Z,1002.13
2019-03-09T04:29:23.554Z,1002.11
2019-03-09T04:30:23.552Z,1002.06
2019-03-09T04:31:23.537Z,1002.12
2019-03-09T04:32:23.559Z,1002.07
2019-03-09T04:33:23.515Z,1002.00
2019-03-09T04:34:23.506Z,1002.05
2019-03-09T04:35:23.485Z,1001.94
2019-03-09T04:36:23.475Z,1001.94
2019-03-09T04:37:23.479Z,1002.01
2019-03-09T04:38:23.523Z,1001.94
2019-03-09T04:39:23.474Z,1001.87
2019-03-09T04:40:23.440Z,1001.83
2019-03-09T04:41:23.435Z,1001.82
2019-03-09T04:42:23.413Z,1001.77
2019-03-09T04:43:23.405Z,1001.72
2019-03-09T04:44:23.443Z,1001.69
2019-03-09T04:45:23.376Z,1001.65
2019-03-09T04:46:23.371Z,1001.60
2019-03-09T04:47:23.358Z,1001.58
2019-03-09T04:48:23.424Z,1001.47
2019-03-09T04:49:23.338Z,1001.43
2019-03-09T04:50:23.326Z,1001.47
2019-03-09T04:51:23.314Z,1001.46
2019-03-09T04:52:23.299Z,1001.42
2019-03-09T04:53:23.292Z,1001.42
2019-03-09T04:54:23.353Z,1001.38
2019-03-09T04:55:23.264Z,1001.38
2019-03-09T04:56:23.332Z,1001.41
2019-03-09T04:57:23.249Z,1001.35
2019-03-09T04:58:23.235Z,1001.37
2019-03-09T04:59:23.227Z,1001.38
2019-03-09T05:00:23.314Z,1001.30
2019-03-09T05:01:23.201Z,1001.28
2019-03-09T05:02:23.188Z,1001.26
2019-03-09T05:03:23.177Z,1001.23
2019-03-09T05:04:23.166Z,1001.17
2019-03-09T05:05:23.164Z,1001.18
2019-03-09T05:06:23.194Z,1001.11
2019-03-09T05:07:23.136Z,1001.04
2019-03-09T05:08:23.126Z,1001.01
2019-03-09T05:09:23.115Z,1000.97
2019-03-09T05:10:23.102Z,1000.91
2019-03-09T05:11:23.090Z,1000.89
2019-03-09T05:12:23.130Z,1000.91
2019-03-09T05:13:23.097Z,1000.91
2019-03-09T05:14:23.094Z,1000.99
2019-03-09T05:15:23.043Z,1000.88
2019-03-09T05:16:23.033Z,1000.88
2019-03-09T05:17:23.028Z,1000.83
2019-03-09T05:18:23.017Z,1000.76
2019-03-09T05:19:23.040Z,1000.78
2019-03-09T05:20:22.995Z,1000.74
2019-03-09T05:21:23.081Z,1000.70
2019-03-09T05:22:22.973Z,1000.67
2019-03-09T05:23:22.955Z,1000.63
2019-03-09T05:24:22.954Z,1000.58
2019-03-09T05:25:22.948Z,1000.55
2019-03-09T05:26:22.930Z,1000.47
2019-03-09T05:27:22.952Z,1000.50
2019-03-09T05:28:22.907Z,1000.47
2019-03-09T05:29:22.897Z,1000.46
2019-03-09T05:30:22.879Z,1000.41
2019-03-09T05:31:22.872Z,1000.43
2019-03-09T05:32:22.913Z,1000.42
2019-03-09T05:33:22.850Z,1000.39
2019-03-09T05:34:22.834Z,1000.39
2019-03-09T05:35:22.829Z,1000.33
2019-03-09T05:36:22.868Z,1000.38
2019-03-09T05:37:22.810Z,1000.35
2019-03-09T05:38:22.792Z,1000.33
2019-03-09T05:39:22.788Z,1000.28
2019-03-09T05:40:22.775Z,1000.28
2019-03-09T05:41:22.767Z,1000.26
2019-03-09T05:42:22.803Z,1000.18
2019-03-09T05:43:22.750Z,1000.17
2019-03-09T05:44:22.725Z,1000.11
2019-03-09T05:45:22.718Z,1000.17
2019-03-09T05:46:22.710Z,1000.17
2019-03-09T05:47:22.694Z,1000.15
2019-03-09T05:48:22.740Z,1000.10
2019-03-09T05:49:22.671Z,1000.09
2019-03-09T05:50:22.660Z,1000.09
2019-03-09T05:51:22.661Z,1000.03
2019-03-09T05:52:22.645Z,1000.07
2019-03-09T05:53:22.667Z,1000.09
2019-03-09T05:54:22.618Z,999.99
2019-03-09T05:55:22.611Z,1000.02
2019-03-09T05:56:22.632Z,1000.03
2019-03-09T05:57:22.586Z,1000.05
2019-03-09T05:58:22.578Z,999.98
2019-03-09T05:59:22.571Z,1000.00
2019-03-09T06:00:22.557Z,999.94
2019-03-09T06:01:22.619Z,999.94
2019-03-09T06:02:22.541Z,999.91
2019-03-09T06:03:22.521Z,999.93
2019-03-09T06:04:22.515Z,999.91
2019-03-09T06:05:22.502Z,999.96
2019-03-09T06:06:22.542Z,999.92
2019-03-09T06:07:22.481Z,999.90
2019-03-09T06:08:22.483Z,999.87
2019-03-09T06:09:22.512Z,999.74
2019-03-09T06:10:22.448Z,999.84
2019-03-09T06:11:22.443Z,999.84
2019-03-09T06:12:22.427Z,999.77
2019-03-09T06:13:22.419Z,999.77
2019-03-09T06:14:22.406Z,999.77
2019-03-09T06:15:22.414Z,999.72
2019-03-09T06:16:22.438Z,999.73
2019-03-09T06:17:22.424Z,999.67
2019-03-09T06:18:22.357Z,999.69
2019-03-09T06:19:22.348Z,999.78
2019-03-09T06:20:22.339Z,999.73
2019-03-09T06:21:22.329Z,999.69
2019-03-09T06:22:22.319Z,999.64
2019-03-09T06:23:22.358Z,999.64
2019-03-09T06:24:22.292Z,999.68
2019-03-09T06:25:22.354Z,999.41
2019-03-09T06:26:22.271Z,999.55
2019-03-09T06:27:22.265Z,999.58
2019-03-09T06:28:22.287Z,999.57
2019-03-09T06:29:22.242Z,999.61
2019-03-09T06:30:22.227Z,999.58
2019-03-09T06:31:22.290Z,999.60
2019-03-09T06:32:22.209Z,999.56
2019-03-09T06:33:22.201Z,999.57
2019-03-09T06:34:22.190Z,999.66
2019-03-09T06:35:22.183Z,999.55
2019-03-09T06:36:22.185Z,999.53
2019-03-09T06:37:22.154Z,999.41
2019-03-09T06:38:22.182Z,999.40
2019-03-09T06:39:22.138Z,999.43
2019-03-09T06:40:22.143Z,999.37
2019-03-09T06:41:22.113Z,999.36
2019-03-09T06:42:22.101Z,999.38
2019-03-09T06:43:22.143Z,999.32
2019-03-09T06:44:22.081Z,999.37
2019-03-09T06:45:22.083Z,999.34
2019-03-09T06:46:22.057Z,999.40
2019-03-09T06:47:22.100Z,999.44
2019-03-09T06:48:22.032Z,999.44
2019-03-09T06:49:22.027Z,999.45
2019-03-09T06:50:22.038Z,999.35
2019-03-09T06:51:22.003Z,999.35
2019-03-09T06:52:21.993Z,999.19
2019-03-09T06:53:21.977Z,999.16
2019-03-09T06:54:21.972Z,999.24
2019-03-09T06:55:22.012Z,999.20
2019-03-09T06:56:21.948Z,999.18
2019-03-09T06:57:21.939Z,999.27
2019-03-09T06:58:21.999Z,999.29
2019-03-09T06:59:21.977Z,999.23
2019-03-09T07:00:21.907Z,999.18
2019-03-09T07:01:21.899Z,999.15
2019-03-09T07:02:21.898Z,999.17
2019-03-09T07:03:21.874Z,999.19
2019-03-09T07:04:21.889Z,999.12
2019-03-09T07:05:21.853Z,999.10
2019-03-09T07:06:21.839Z,999.06
2019-03-09T07:07:21.859Z,999.10
2019-03-09T07:08:21.823Z,999.14
2019-03-09T07:09:21.810Z,999.04
2019-03-09T07:10:21.803Z,999.11
2019-03-09T07:11:21.790Z,999.11
2019-03-09T07:12:21.829Z,999.03
2019-03-09T07:13:21.796Z,999.09
2019-03-09T07:14:21.753Z,999.04
2019-03-09T07:15:21.741Z,999.07
2019-03-09T07:16:21.735Z,999.01
2019-03-09T07:17:21.719Z,999.05
2019-03-09T07:18:21.756Z,998.94
2019-03-09T07:19:21.767Z,998.98
2019-03-09T07:20:21.694Z,998.92
2019-03-09T07:21:21.727Z,998.95
2019-03-09T07:22:21.668Z,999.05
2019-03-09T07:23:21.654Z,999.01
2019-03-09T07:24:21.643Z,998.93
2019-03-09T07:25:21.632Z,998.91
2019-03-09T07:26:21.623Z,998.86
2019-03-09T07:27:21.686Z,998.87
2019-03-09T07:28:21.604Z,998.83
2019-03-09T07:29:21.588Z,998.81
2019-03-09T07:30:21.617Z,998.96
2019-03-09T07:31:21.627Z,998.90
2019-03-09T07:32:21.619Z,998.97
2019-03-09T07:33:21.648Z,998.95
2019-03-09T07:34:21.538Z,998.92
2019-03-09T07:35:21.531Z,998.76
2019-03-09T07:36:21.513Z,998.77
2019-03-09T07:37:21.503Z,998.79
2019-03-09T07:38:21.492Z,998.79
2019-03-09T07:39:21.515Z,998.95
2019-03-09T07:40:21.474Z,998.93
2019-03-09T07:41:21.463Z,998.94
2019-03-09T07:42:21.449Z,998.94
2019-03-09T07:43:21.460Z,998.92
2019-03-09T07:44:21.432Z,998.92
2019-03-09T07:45:21.422Z,998.88
2019-03-09T07:46:21.404Z,998.84
2019-03-09T07:47:21.392Z,998.82
2019-03-09T07:48:21.441Z,998.62
2019-03-09T07:49:21.411Z,998.79
2019-03-09T07:50:21.364Z,998.73
2019-03-09T07:51:21.349Z,998.84
2019-03-09T07:52:21.346Z,998.85
2019-03-09T07:53:21.329Z,998.87
2019-03-09T07:54:21.357Z,998.71
2019-03-09T07:55:21.307Z,998.74
2019-03-09T07:56:21.302Z,998.85
2019-03-09T07:57:21.288Z,998.93
2019-03-09T07:58:21.280Z,998.89
2019-03-09T07:59:21.269Z,998.81
2019-03-09T08:00:21.308Z,998.85
2019-03-09T08:01:21.240Z,998.83
2019-03-09T08:02:21.229Z,998.83
2019-03-09T08:03:21.223Z,998.88
2019-03-09T08:04:21.213Z,998.92
2019-03-09T08:05:21.206Z,998.96
2019-03-09T08:06:21.241Z,998.96
2019-03-09T08:07:21.178Z,999.04
2019-03-09T08:08:21.168Z,999.15
2019-03-09T08:09:21.152Z,999.04
2019-03-09T08:10:21.259Z,999.05
2019-03-09T08:11:21.136Z,999.04
2019-03-09T08:12:21.121Z,999.09
2019-03-09T08:13:21.112Z,999.21
2019-03-09T08:14:21.100Z,999.22
2019-03-09T08:15:21.092Z,999.26
2019-03-09T08:16:21.150Z,999.27
2019-03-09T08:17:21.132Z,999.08
2019-03-09T08:18:21.136Z,999.12
2019-03-09T08:19:21.065Z,999.04
2019-03-09T08:20:21.035Z,999.02
2019-03-09T08:21:21.028Z,999.09
2019-03-09T08:22:21.059Z,999.18
2019-03-09T08:23:21.003Z,999.31
2019-03-09T08:24:20.991Z,999.15
2019-03-09T08:25:20.980Z,999.27
2019-03-09T08:26:20.980Z,999.38
2019-03-09T08:27:20.953Z,999.34
2019-03-09T08:28:21.030Z,999.32
2019-03-09T08:29:20.962Z,999.38
2019-03-09T08:30:20.941Z,999.42
2019-03-09T08:31:20.916Z,999.47
2019-03-09T08:32:20.899Z,999.40
2019-03-09T08:33:20.945Z,999.42
2019-03-09T08:34:20.890Z,999.40
2019-03-09T08:35:20.889Z,999.41
2019-03-09T08:36:20.865Z,999.40
2019-03-09T08:37:20.861Z,999.45
2019-03-09T08:38:20.875Z,999.40
2019-03-09T08:39:20.824Z,999.55
2019-03-09T08:40:20.810Z,999.58
2019-03-09T08:41:20.805Z,999.56
2019-03-09T08:42:20.806Z,999.57
2019-03-09T08:43:20.829Z,999.65
2019-03-09T08:44:20.772Z,999.67
2019-03-09T08:45:20.772Z,999.63
2019-03-09T08:46:20.746Z,999.68
2019-03-09T08:47:20.742Z,999.69
2019-03-09T08:48:20.732Z,999.67
2019-03-09T08:49:20.752Z,999.61
2019-03-09T08:50:20.703Z,999.58
2019-03-09T08:51:20.693Z,999.67
2019-03-09T08:52:20.736Z,999.79
2019-03-09T08:53:20.703Z,999.80
2019-03-09T08:54:20.723Z,999.58
2019-03-09T08:55:20.698Z,999.68
2019-03-09T08:56:20.687Z,999.69
2019-03-09T08:57:20.679Z,999.69
2019-03-09T08:58:20.615Z,999.79
2019-03-09T08:59:20.614Z,999.63
2019-03-09T09:00:20.645Z,999.69
2019-03-09T09:01:20.580Z,999.66
2019-03-09T09:02:20.575Z,999.64
2019-03-09T09:03:20.565Z,999.60
2019-03-09T09:04:20.557Z,999.59
2019-03-09T09:05:20.557Z,999.59
2019-03-09T09:06:20.538Z,999.60
2019-03-09T09:07:20.534Z,999.51
2019-03-09T09:08:20.505Z,999.57
2019-03-09T09:09:20.527Z,999.51
2019-03-09T09:10:20.497Z,999.54
2019-03-09T09:11:20.501Z,999.57
2019-03-09T09:12:20.461Z,999.58
2019-03-09T09:13:20.456Z,999.59
2019-03-09T09:14:20.439Z,999.57
2019-03-09T09:15:20.468Z,999.56
2019-03-09T09:16:20.425Z,999.63
2019-03-09T09:17:20.407Z,999.68
2019-03-09T09:18:20.400Z,999.55
2019-03-09T09:19:20.388Z,999.57
2019-03-09T09:20:20.378Z,999.60
2019-03-09T09:21:20.395Z,999.64
2019-03-09T09:22:20.364Z,999.54
2019-03-09T09:23:20.345Z,999.65
2019-03-09T09:24:20.335Z,999.57
2019-03-09T09:25:20.327Z,999.72
2019-03-09T09:26:20.330Z,999.69
2019-03-09T09:27:20.357Z,999.69
2019-03-09T09:28:20.296Z,999.82
2019-03-09T09:29:20.277Z,999.79
2019-03-09T09:30:20.263Z,999.78
2019-03-09T09:31:20.252Z,999.89
2019-03-09T09:32:20.278Z,999.76
2019-03-09T09:33:20.233Z,999.94
2019-03-09T09:34:20.221Z,999.72
2019-03-09T09:35:20.208Z,999.86
2019-03-09T09:36:20.204Z,999.85
2019-03-09T09:37:20.236Z,999.89
2019-03-09T09:38:20.175Z,1000.07
2019-03-09T09:39:20.177Z,999.95
2019-03-09T09:40:20.175Z,999.99
2019-03-09T09:41:20.147Z,999.98
2019-03-09T09:42:20.133Z,1000.03
2019-03-09T09:43:20.176Z,999.99
2019-03-09T09:44:20.149Z,1000.03
2019-03-09T09:45:20.147Z,1000.22
2019-03-09T09:46:20.090Z,1000.22
2019-03-09T09:47:20.082Z,1000.06
2019-03-09T09:48:20.088Z,1000.05
2019-03-09T09:49:20.058Z,999.98
2019-03-09T09:50:20.141Z,1000.14
2019-03-09T09:51:20.043Z,1000.09
2019-03-09T09:52:20.047Z,1000.09
2019-03-09T09:53:20.033Z,1000.11
2019-03-09T09:54:20.045Z,999.90
2019-03-09T09:55:20.000Z,1000.07
2019-03-09T09:56:19.982Z,999.99
2019-03-09T09:57:19.967Z,999.85
2019-03-09T09:58:19.955Z,999.90
2019-03-09T09:59:19.949Z,999.82
2019-03-09T10:00:19.971Z,999.86
2019-03-09T10:01:19.927Z,999.78
2019-03-09T10:02:19.911Z,999.92
2019-03-09T10:03:19.902Z,999.96
2019-03-09T10:04:19.933Z,999.91
2019-03-09T10:05:19.942Z,1000.04
2019-03-09T10:06:19.904Z,999.94
2019-03-09T10:07:19.859Z,999.90
2019-03-09T10:08:19.849Z,1000.00
2019-03-09T10:09:19.836Z,1000.02
2019-03-09T10:10:19.863Z,1000.02
2019-03-09T10:11:19.818Z,1000.10
2019-03-09T10:12:19.811Z,1000.06
2019-03-09T10:13:19.791Z,999.93
2019-03-09T10:14:19.780Z,1000.03
2019-03-09T10:15:19.777Z,1000.19
2019-03-09T10:16:19.804Z,1000.26
2019-03-09T10:17:19.747Z,1000.10
2019-03-09T10:18:19.740Z,1000.23
2019-03-09T10:19:19.756Z,1000.10
2019-03-09T10:20:19.716Z,1000.16
2019-03-09T10:21:19.746Z,1000.14
2019-03-09T10:22:19.695Z,1000.18
2019-03-09T10:23:19.714Z,1000.25
2019-03-09T10:24:19.674Z,1000.16
2019-03-09T10:25:19.660Z,1000.19
2019-03-09T10:26:19.706Z,1000.05
2019-03-09T10:27:19.648Z,1000.12
2019-03-09T10:28:19.628Z,1000.25
2019-03-09T10:29:19.622Z,1000.32
2019-03-09T10:30:19.612Z,1000.31
2019-03-09T10:31:19.655Z,1000.32
2019-03-09T10:32:19.595Z,1000.60
2019-03-09T10:33:19.592Z,1000.34
2019-03-09T10:34:19.568Z,1000.30
2019-03-09T10:35:19.552Z,1000.34
2019-03-09T10:36:19.642Z,1000.41
2019-03-09T10:37:19.531Z,1000.43
2019-03-09T10:38:19.522Z,1000.59
2019-03-09T10:39:19.513Z,1000.63
2019-03-09T10:40:19.499Z,1000.61
2019-03-09T10:41:19.485Z,1000.60
2019-03-09T10:42:19.504Z,1000.74
2019-03-09T10:43:19.464Z,1000.67
2019-03-09T10:44:19.457Z,1000.58
2019-03-09T10:45:19.542Z,1000.62
2019-03-09T10:46:19.454Z,1000.64
2019-03-09T10:47:19.478Z,1000.65
2019-03-09T10:48:19.414Z,1000.66
2019-03-09T10:49:19.406Z,1000.66
2019-03-09T10:50:19.469Z,1000.65
2019-03-09T10:51:19.380Z,1000.59
2019-03-09T10:52:19.470Z,1000.61
2019-03-09T10:53:19.388Z,1000.66
2019-03-09T10:54:19.354Z,1000.58
2019-03-09T10:55:19.339Z,1000.63
2019-03-09T10:56:19.328Z,1000.56
2019-03-09T10:57:19.314Z,1000.66
2019-03-09T10:58:19.379Z,1000.61
2019-03-09T10:59:19.290Z,1000.72
2019-03-09T11:00:19.286Z,1000.61
2019-03-09T11:01:19.268Z,1000.60
2019-03-09T11:02:19.256Z,1000.57
2019-03-09T11:03:19.304Z,1000.62
2019-03-09T11:04:27.265Z,1000.59
2019-03-09T11:05:20.227Z,1000.60
2019-03-09T11:06:19.228Z,1000.54
2019-03-09T11:07:25.835Z,1000.60
2019-03-09T11:08:19.190Z,1000.60
2019-03-09T11:09:19.249Z,1000.69
2019-03-09T11:10:19.177Z,1000.57
2019-03-09T11:11:19.158Z,1000.59
2019-03-09T11:12:19.153Z,1000.66
2019-03-09T11:13:19.164Z,1000.62
2019-03-09T11:14:19.133Z,1000.64
2019-03-09T11:15:19.114Z,1000.59
2019-03-09T11:16:19.135Z,1000.63
2019-03-09T11:17:19.098Z,1000.55
2019-03-09T11:18:19.105Z,1000.64
2019-03-09T11:19:19.095Z,1000.66
2019-03-09T11:20:19.068Z,1000.61
2019-03-09T11:21:19.050Z,1000.58
2019-03-09T11:22:19.037Z,1000.52
2019-03-09T11:23:19.058Z,1000.57
2019-03-09T11:24:19.017Z,1000.60
2019-03-09T11:25:19.015Z,1000.67
2019-03-09T11:26:19.004Z,1000.64
2019-03-09T11:27:18.990Z,1000.58
2019-03-09T11:28:19.006Z,1000.66
2019-03-09T11:29:18.976Z,1000.61
2019-03-09T11:30:18.960Z,1000.54
2019-03-09T11:31:18.938Z,1000.55
2019-03-09T11:32:18.945Z,1000.48
2019-03-09T11:33:18.956Z,1000.39
2019-03-09T11:34:18.912Z,1000.41
2019-03-09T11:35:18.903Z,1000.48
2019-03-09T11:36:18.890Z,1000.38
2019-03-09T11:37:18.874Z,1000.43
2019-03-09T11:38:18.871Z,1000.39
2019-03-09T11:39:20.787Z,1000.41
2019-03-09T11:40:18.850Z,1000.42
2019-03-09T11:41:19.536Z,1000.46
2019-03-09T11:42:18.824Z,1000.46
2019-03-09T11:43:18.810Z,1000.49
2019-03-09T11:44:18.796Z,1000.40
2019-03-09T11:45:18.839Z,1000.48
2019-03-09T11:46:18.775Z,1000.54
2019-03-09T11:47:18.783Z,1000.25
2019-03-09T11:48:18.757Z,1000.47
2019-03-09T11:49:18.742Z,1000.40
2019-03-09T11:50:18.782Z,1000.34
2019-03-09T11:51:18.721Z,1000.55
2019-03-09T11:52:20.297Z,1000.38
2019-03-09T11:53:18.703Z,1000.49
2019-03-09T11:54:18.697Z,1000.47
2019-03-09T11:55:18.706Z,1000.35
2019-03-09T11:56:18.681Z,1000.27
2019-03-09T11:57:18.653Z,1000.43
2019-03-09T11:58:18.643Z,1000.50
2019-03-09T11:59:18.633Z,1000.56
2019-03-09T12:00:18.626Z,1000.33
2019-03-09T12:01:18.626Z,1000.42
2019-03-09T12:02:18.614Z,1000.44
2019-03-09T12:03:18.591Z,1000.47
2019-03-09T12:04:18.581Z,1000.41
2019-03-09T12:05:18.576Z,1000.47
2019-03-09T12:06:18.593Z,1000.35
2019-03-09T12:07:18.553Z,1000.48
2019-03-09T12:08:18.599Z,1000.38
2019-03-09T12:09:18.521Z,1000.44
2019-03-09T12:10:18.516Z,1000.32
2019-03-09T12:11:18.502Z,1000.34
2019-03-09T12:12:18.491Z,1000.28
2019-03-09T12:13:18.482Z,1000.28